createdAt,value
2016-03-16T00:09:02.596Z,955.7
2016-03-16T00:10:02.583Z,955.7
2016-03-16T00:11:02.586Z,955.71
2016-03-16T11:24:37.098Z,958.8
2016-03-16T11:25:37.100Z,958.79
2016-03-16T11:26:37.102Z,958.8
2016-03-16T11:27:37.089Z,958.79
2016-03-16T11:28:37.092Z,958.82
2016-03-16T11:29:37.095Z,958.85
2016-03-16T11:30:37.129Z,958.82
2016-03-16T11:31:37.101Z,958.79
2016-03-16T11:33:11.090Z,958.8
2016-03-16T11:34:11.092Z,958.79
2016-03-16T11:35:11.094Z,958.81
2016-03-16T11:37:56.304Z,958.77
2016-03-16T11:38:56.307Z,958.82
2016-03-16T11:40:18.203Z,958.78
2016-03-16T11:41:18.205Z,958.85
2016-03-16T11:42:18.207Z,958.87
2016-03-16T11:43:18.211Z,958.81
2016-03-16T11:44:18.213Z,958.83
2016-03-16T11:45:18.216Z,958.83
2016-03-16T11:46:18.203Z,958.77
2016-03-16T11:47:18.206Z,958.82
2016-03-16T11:48:18.209Z,958.82
2016-03-16T11:49:18.212Z,958.81
2016-03-16T11:50:18.214Z,958.85
2016-03-16T11:51:18.217Z,958.84
2016-03-16T11:52:18.204Z,958.86
2016-03-16T11:53:18.206Z,958.83
2016-03-16T11:54:18.209Z,958.9
2016-03-16T11:55:18.211Z,958.93
2016-03-16T11:56:18.215Z,958.95
2016-03-16T11:57:18.217Z,958.92
2016-03-16T11:58:18.204Z,958.99
2016-03-16T11:59:18.206Z,959.03
2016-03-16T12:00:18.209Z,958.99
2016-03-16T12:01:18.212Z,959.02
2016-03-16T12:02:18.230Z,959.09
2016-03-16T12:03:18.217Z,959
2016-03-16T12:04:18.220Z,959.02
2016-03-16T12:05:18.208Z,959.01
2016-03-16T12:06:18.210Z,959.01
2016-03-16T12:07:18.213Z,959.04
2016-03-16T12:08:18.231Z,959.11
2016-03-16T12:09:18.218Z,959.07
2016-03-16T12:10:18.221Z,959.05
2016-03-16T12:11:18.208Z,959.02
2016-03-16T12:12:18.210Z,959.05
2016-03-16T12:13:18.213Z,959.09
2016-03-16T12:14:18.216Z,959.02
2016-03-16T12:15:18.218Z,958.99
2016-03-16T12:16:18.221Z,959.02
2016-03-16T12:17:18.224Z,959.02
2016-03-16T12:18:18.227Z,958.99
2016-03-16T12:19:18.213Z,958.99
2016-03-16T12:20:18.216Z,958.95
2016-03-16T12:21:18.219Z,958.98
2016-03-16T12:22:18.221Z,958.97
2016-03-16T12:23:18.224Z,958.99
2016-03-16T12:24:18.226Z,959.01
2016-03-16T12:25:18.229Z,959.01
2016-03-16T12:26:18.217Z,959.04
2016-03-16T12:27:18.220Z,959.03
2016-03-16T12:28:18.222Z,958.97
2016-03-16T12:29:18.225Z,959.02
2016-03-16T12:30:18.228Z,958.98
2016-03-16T12:31:18.231Z,959.01
2016-03-16T12:32:18.233Z,958.94
2016-03-16T12:33:18.220Z,958.99
2016-03-16T12:34:18.223Z,959
2016-03-16T12:35:18.225Z,959
2016-03-16T12:36:18.228Z,959.05
2016-03-16T12:37:18.230Z,959.01
2016-03-16T12:38:18.234Z,959.01
2016-03-16T12:39:18.236Z,959.03
2016-03-16T12:40:18.224Z,959.05
2016-03-16T12:41:18.226Z,958.97
2016-03-16T12:42:18.229Z,958.99
2016-03-16T12:43:18.232Z,959.03
2016-03-16T12:44:18.235Z,959.02
2016-03-16T12:45:18.252Z,958.99
2016-03-16T12:46:18.239Z,958.96
2016-03-16T12:47:18.243Z,958.96
2016-03-16T12:48:18.229Z,958.92
2016-03-16T12:49:18.232Z,958.98
2016-03-16T12:50:18.234Z,958.94
2016-03-16T12:51:18.238Z,958.92
2016-03-16T12:52:18.240Z,958.97
2016-03-16T12:53:18.243Z,958.98
2016-03-16T12:54:18.245Z,958.96
2016-03-16T12:55:18.232Z,958.97
2016-03-16T12:56:18.235Z,958.99
2016-03-16T12:57:18.238Z,958.98
2016-03-16T12:58:18.240Z,959
2016-03-16T12:59:18.243Z,959
2016-03-16T13:00:18.246Z,959
2016-03-16T13:01:18.234Z,958.98
2016-03-16T13:02:18.236Z,958.97
2016-03-16T13:03:18.253Z,958.97
2016-03-16T13:04:18.242Z,958.96
2016-03-16T13:05:18.244Z,958.99
2016-03-16T13:06:18.247Z,958.97
2016-03-16T13:07:18.249Z,958.98
2016-03-16T13:08:18.252Z,959
2016-03-16T13:09:18.239Z,958.96
2016-03-16T13:10:18.241Z,958.94
2016-03-16T13:11:18.244Z,958.95
2016-03-16T13:12:18.246Z,958.9
2016-03-16T13:13:18.250Z,958.89
2016-03-16T13:14:18.252Z,958.9
2016-03-16T13:15:18.255Z,958.9
2016-03-16T13:16:18.257Z,958.92
2016-03-16T13:17:18.245Z,958.92
2016-03-16T13:18:18.247Z,958.93
2016-03-16T13:19:18.249Z,958.88
2016-03-16T13:20:18.252Z,958.93
2016-03-16T13:21:18.254Z,958.9
2016-03-16T13:22:18.243Z,958.97
2016-03-16T13:23:18.245Z,958.95
2016-03-16T13:24:18.248Z,958.94
2016-03-16T13:25:18.250Z,958.96
2016-03-16T13:26:18.254Z,959.02
2016-03-16T13:27:18.256Z,959.01
2016-03-16T13:28:18.258Z,958.98
2016-03-16T13:29:18.245Z,958.94
2016-03-16T13:30:18.249Z,959.01
2016-03-16T13:31:18.251Z,959
2016-03-16T13:32:18.253Z,958.99
2016-03-16T13:33:18.256Z,959.02
2016-03-16T13:34:18.258Z,959.02
2016-03-16T13:35:18.262Z,959.01
2016-03-16T13:36:18.264Z,959.02
2016-03-16T13:37:18.252Z,958.98
2016-03-16T13:38:18.254Z,959.06
2016-03-16T13:39:18.258Z,959.04
2016-03-16T13:40:18.260Z,959.04
2016-03-16T13:41:18.262Z,959.07
2016-03-16T13:42:18.265Z,959.03
2016-03-16T13:43:18.268Z,959.01
2016-03-16T13:44:18.271Z,959.06
2016-03-16T13:45:18.257Z,959
2016-03-16T13:46:18.260Z,959.02
2016-03-16T13:47:18.262Z,958.95
2016-03-16T13:48:18.266Z,959
2016-03-16T13:49:18.252Z,959
2016-03-16T13:50:18.255Z,959
2016-03-16T13:51:18.257Z,959.01
2016-03-16T13:52:18.261Z,958.96
2016-03-16T13:53:18.263Z,958.96
2016-03-16T13:54:18.265Z,958.98
2016-03-16T13:55:18.254Z,958.95
2016-03-16T13:56:18.256Z,958.92
2016-03-16T13:57:18.259Z,958.92
2016-03-16T13:58:18.261Z,958.94
2016-03-16T13:59:18.264Z,958.89
2016-03-16T14:00:18.282Z,958.89
2016-03-16T14:01:18.270Z,958.92
2016-03-16T14:02:18.256Z,958.91
2016-03-16T14:03:18.275Z,958.86
2016-03-16T14:04:18.262Z,958.87
2016-03-16T14:05:18.280Z,958.91
2016-03-16T14:06:18.267Z,958.88
2016-03-16T14:07:18.270Z,958.85
2016-03-16T14:08:18.273Z,958.9
2016-03-16T14:09:18.259Z,958.87
2016-03-16T14:10:18.262Z,958.86
2016-03-16T14:11:18.264Z,958.88
2016-03-16T14:12:18.267Z,958.86
2016-03-16T14:13:18.270Z,958.85
2016-03-16T14:14:18.272Z,958.9
2016-03-16T14:15:18.260Z,958.86
2016-03-16T14:16:18.263Z,958.87
2016-03-16T14:17:18.281Z,958.87
2016-03-16T14:18:18.283Z,958.89
2016-03-16T14:19:18.271Z,958.9
2016-03-16T14:20:18.273Z,958.85
2016-03-16T14:21:18.277Z,958.84
2016-03-16T14:22:18.279Z,958.85
2016-03-16T14:23:18.282Z,958.86
2016-03-16T14:24:18.268Z,958.89
2016-03-16T14:25:18.271Z,958.85
2016-03-16T14:26:18.274Z,958.9
2016-03-16T14:27:18.277Z,958.91
2016-03-16T14:28:18.279Z,958.91
2016-03-16T14:29:18.267Z,958.88
2016-03-16T14:30:18.270Z,958.9
2016-03-16T14:31:18.272Z,958.86
2016-03-16T14:32:18.275Z,958.85
2016-03-16T14:33:18.277Z,958.85
2016-03-16T14:34:18.281Z,958.86
2016-03-16T14:35:18.267Z,958.83
2016-03-16T14:36:18.270Z,958.8
2016-03-16T14:37:18.272Z,958.84
2016-03-16T14:38:18.275Z,958.82
2016-03-16T14:39:18.278Z,958.83
2016-03-16T14:40:18.281Z,958.83
2016-03-16T14:41:18.268Z,958.88
2016-03-16T14:42:18.270Z,958.86
2016-03-16T14:43:18.273Z,958.86
2016-03-16T14:44:18.275Z,958.85
2016-03-16T14:45:18.277Z,958.88
2016-03-16T14:46:18.281Z,958.84
2016-03-16T14:47:18.284Z,958.86
2016-03-16T14:48:18.271Z,958.89
2016-03-16T14:49:18.274Z,958.89
2016-03-16T14:50:18.277Z,958.86
2016-03-16T14:51:18.279Z,958.9
2016-03-16T14:52:18.282Z,958.93
2016-03-16T14:53:18.284Z,958.94
2016-03-16T14:54:18.272Z,958.96
2016-03-16T14:55:18.274Z,958.95
2016-03-16T14:56:18.277Z,958.86
2016-03-16T14:57:18.279Z,958.87
2016-03-16T14:58:18.281Z,958.86
2016-03-16T14:59:18.284Z,958.86
2016-03-16T15:00:18.288Z,958.82
2016-03-16T15:01:18.274Z,958.77
2016-03-16T15:02:18.292Z,958.73
2016-03-16T15:03:18.280Z,958.82
2016-03-16T15:04:18.282Z,958.78
2016-03-16T15:05:18.285Z,958.82
2016-03-16T15:06:18.287Z,958.81
2016-03-16T15:07:18.286Z,958.79
2016-03-16T15:08:18.289Z,958.83
2016-03-16T15:09:18.292Z,958.76
2016-03-16T15:10:18.309Z,958.8
2016-03-16T15:11:18.280Z,958.81
2016-03-16T15:12:18.299Z,958.79
2016-03-16T15:13:18.286Z,958.81
2016-03-16T15:14:18.289Z,958.78
2016-03-16T15:15:18.275Z,958.77
2016-03-16T15:16:18.279Z,958.78
2016-03-16T15:17:18.281Z,958.79
2016-03-16T15:18:18.284Z,958.78
2016-03-16T15:19:18.286Z,958.78
2016-03-16T15:20:18.289Z,958.76
2016-03-16T15:21:18.292Z,958.78
2016-03-16T15:22:18.280Z,958.74
2016-03-16T15:23:18.297Z,958.81
2016-03-16T15:24:18.284Z,958.78
2016-03-16T15:25:18.287Z,958.76
2016-03-16T15:26:18.290Z,958.79
2016-03-16T15:27:18.293Z,958.8
2016-03-16T15:28:18.279Z,958.8
2016-03-16T15:29:18.298Z,958.79
2016-03-16T15:30:18.301Z,958.81
2016-03-16T15:31:18.288Z,958.75
2016-03-16T15:32:18.290Z,958.8
2016-03-16T15:33:18.277Z,958.76
2016-03-16T15:34:18.295Z,958.76
2016-03-16T15:35:18.283Z,958.76
2016-03-16T15:36:18.285Z,958.76
2016-03-16T15:37:18.287Z,958.73
2016-03-16T15:38:18.290Z,958.74
2016-03-16T15:39:18.293Z,958.76
2016-03-16T15:40:18.296Z,958.73
2016-03-16T15:41:18.283Z,958.8
2016-03-16T15:42:18.286Z,958.77
2016-03-16T15:43:18.289Z,958.78
2016-03-16T15:44:18.292Z,958.82
2016-03-16T15:45:18.294Z,958.84
2016-03-16T15:46:18.280Z,958.86
2016-03-16T15:47:18.283Z,958.88
2016-03-16T15:48:18.287Z,958.9
2016-03-16T15:49:18.289Z,958.86
2016-03-16T15:50:18.291Z,958.89
2016-03-16T15:51:18.294Z,958.89
2016-03-16T15:52:18.282Z,958.89
2016-03-16T15:53:18.300Z,958.89
2016-03-16T15:54:18.287Z,958.91
2016-03-16T15:55:18.291Z,958.9
2016-03-16T15:56:18.292Z,958.89
2016-03-16T15:57:18.295Z,958.92
2016-03-16T15:58:18.298Z,958.91
2016-03-16T15:59:18.300Z,958.95
2016-03-16T16:00:18.287Z,958.92
2016-03-16T16:01:18.291Z,958.91
2016-03-16T16:02:18.293Z,958.9
2016-03-16T16:03:18.295Z,958.93
2016-03-16T16:04:18.299Z,958.9
2016-03-16T16:05:18.301Z,958.91
2016-03-16T16:06:18.288Z,958.88
2016-03-16T16:07:18.290Z,958.88
2016-03-16T16:08:18.294Z,958.88
2016-03-16T16:09:18.296Z,958.88
2016-03-16T16:10:18.299Z,958.91
2016-03-16T16:11:18.286Z,958.93
2016-03-16T16:12:18.288Z,958.89
2016-03-16T16:13:18.292Z,958.96
2016-03-16T16:14:18.295Z,958.93
2016-03-16T16:15:18.297Z,958.94
2016-03-16T16:16:18.299Z,958.95
2016-03-16T16:17:18.287Z,958.96
2016-03-16T16:18:18.289Z,958.96
2016-03-16T16:19:18.291Z,959
2016-03-16T16:20:18.294Z,959.02
2016-03-16T16:21:18.297Z,959.03
2016-03-16T16:22:18.284Z,959.04
2016-03-16T16:23:18.286Z,959.04
2016-03-16T16:24:18.289Z,959.05
2016-03-16T16:25:18.291Z,959.04
2016-03-16T16:26:18.295Z,959.06
2016-03-16T16:27:18.297Z,959.06
2016-03-16T16:28:18.285Z,959.1
2016-03-16T16:29:18.288Z,959.04
2016-03-16T16:30:18.291Z,959.03
2016-03-16T16:31:18.293Z,959.04
2016-03-16T16:32:18.295Z,959.04
2016-03-16T16:33:18.298Z,959.02
2016-03-16T16:34:18.301Z,958.99
2016-03-16T16:35:18.288Z,958.99
2016-03-16T16:36:18.290Z,959.03
2016-03-16T16:37:18.293Z,959.02
2016-03-16T16:38:18.296Z,958.99
2016-03-16T16:39:18.299Z,959.01
2016-03-16T16:40:18.286Z,959.03
2016-03-16T16:41:18.304Z,959.01
2016-03-16T16:42:18.292Z,959.04
2016-03-16T16:43:18.294Z,959.05
2016-03-16T16:44:18.297Z,959.1
2016-03-16T16:45:18.299Z,959.12
2016-03-16T16:46:18.286Z,959.1
2016-03-16T16:47:18.289Z,959.13
2016-03-16T16:48:18.292Z,959.11
2016-03-16T16:49:18.294Z,959.08
2016-03-16T16:50:18.297Z,959.11
2016-03-16T16:51:18.300Z,959.1
2016-03-16T16:52:18.302Z,959.06
2016-03-16T16:53:18.289Z,959.1
2016-03-16T16:54:18.292Z,959.12
2016-03-16T16:55:18.295Z,959.09
2016-03-16T16:56:18.297Z,959.05
2016-03-16T16:57:18.300Z,959.1
2016-03-16T16:58:18.287Z,959.11
2016-03-16T16:59:18.305Z,959.1
2016-03-16T17:00:18.293Z,959.13
2016-03-16T17:01:18.295Z,959.16
2016-03-16T17:02:18.298Z,959.16
2016-03-16T17:03:18.301Z,959.14
2016-03-16T17:04:18.304Z,959.1
2016-03-16T17:05:18.290Z,959.07
2016-03-16T17:06:18.309Z,959.14
2016-03-16T17:07:18.296Z,959.09
2016-03-16T17:08:18.315Z,959.13
2016-03-16T17:09:18.302Z,959.11
2016-03-16T17:10:18.303Z,959.11
2016-03-16T17:11:18.291Z,959.07
2016-03-16T17:12:18.293Z,959.13
2016-03-16T17:13:18.295Z,959.05
2016-03-16T17:14:18.298Z,959.03
2016-03-16T17:15:18.301Z,959.04
2016-03-16T17:16:18.289Z,959.04
2016-03-16T17:17:18.291Z,959.04
2016-03-16T17:18:18.310Z,959.07
2016-03-16T17:19:18.312Z,959.06
2016-03-16T17:20:18.299Z,959.07
2016-03-16T17:21:18.302Z,959.04
2016-03-16T17:22:18.305Z,959.07
2016-03-16T17:23:18.292Z,959.08
2016-03-16T17:24:18.294Z,959.07
2016-03-16T17:25:18.297Z,959.09
2016-03-16T17:26:18.300Z,959.11
2016-03-16T17:27:18.288Z,959.12
2016-03-16T17:28:18.305Z,959.09
2016-03-16T17:29:18.293Z,959.11
2016-03-16T17:30:18.296Z,959.01
2016-03-16T17:31:18.298Z,959.02
2016-03-16T17:32:18.301Z,959.01
2016-03-16T17:33:18.304Z,959.05
2016-03-16T17:34:18.290Z,959.04
2016-03-16T17:35:18.293Z,959.03
2016-03-16T17:36:18.296Z,959.05
2016-03-16T17:37:18.298Z,959.11
2016-03-16T17:38:18.301Z,959.14
2016-03-16T17:39:18.288Z,959.16
2016-03-16T17:40:18.306Z,959.18
2016-03-16T17:41:18.293Z,959.19
2016-03-16T17:42:18.296Z,959.19
2016-03-16T17:43:18.299Z,959.24
2016-03-16T17:44:18.301Z,959.25
2016-03-16T17:45:18.289Z,959.25
2016-03-16T17:46:18.307Z,959.34
2016-03-16T17:47:18.294Z,959.23
2016-03-16T17:48:18.297Z,959.2
2016-03-16T17:49:18.299Z,959.22
2016-03-16T17:50:18.302Z,959.22
2016-03-16T17:51:18.305Z,959.14
2016-03-16T17:52:18.291Z,959.21
2016-03-16T17:53:18.295Z,959.15
2016-03-16T17:54:18.297Z,959.16
2016-03-16T17:55:18.299Z,959.12
2016-03-16T17:56:18.287Z,959.14
2016-03-16T17:57:18.306Z,959.14
2016-03-16T17:58:18.292Z,959.17
2016-03-16T17:59:18.294Z,959.18
2016-03-16T18:00:18.298Z,959.21
2016-03-16T18:01:18.300Z,959.22
2016-03-16T18:02:18.302Z,959.23
2016-03-16T18:03:18.290Z,959.21
2016-03-16T18:04:18.293Z,959.21
2016-03-16T18:05:18.296Z,959.2
2016-03-16T18:06:18.298Z,959.21
2016-03-16T18:07:18.301Z,959.24
2016-03-16T18:08:18.304Z,959.23
2016-03-16T18:09:18.291Z,959.25
2016-03-16T18:10:18.309Z,959.22
2016-03-16T18:11:18.296Z,959.21
2016-03-16T18:12:18.299Z,959.16
2016-03-16T18:13:18.301Z,959.19
2016-03-16T18:14:18.304Z,959.16
2016-03-16T18:15:18.292Z,959.17
2016-03-16T18:16:18.294Z,959.17
2016-03-16T18:17:18.296Z,959.15
2016-03-16T18:18:18.299Z,959.19
2016-03-16T18:19:18.303Z,959.18
2016-03-16T18:20:18.289Z,959.2
2016-03-16T18:21:18.291Z,959.18
2016-03-16T18:22:18.295Z,959.16
2016-03-16T18:23:18.297Z,959.19
2016-03-16T18:24:18.299Z,959.18
2016-03-16T18:25:18.302Z,959.2
2016-03-16T18:26:18.306Z,959.23
2016-03-16T18:27:18.292Z,959.24
2016-03-16T18:28:18.294Z,959.23
2016-03-16T18:29:18.297Z,959.22
2016-03-16T18:30:18.300Z,959.27
2016-03-16T18:31:18.280Z,959.29
2016-03-16T18:32:18.284Z,959.31
2016-03-16T18:33:18.258Z,959.36
2016-03-16T18:34:18.248Z,959.38
2016-03-16T18:35:18.237Z,959.44
2016-03-16T18:36:18.216Z,959.42
2016-03-16T18:37:18.213Z,959.45
2016-03-16T18:38:18.227Z,959.45
2016-03-16T18:39:18.226Z,959.48
2016-03-16T18:40:18.207Z,959.5
2016-03-16T18:41:18.208Z,959.52
2016-03-16T18:42:18.208Z,959.48
2016-03-16T18:43:18.192Z,959.43
2016-03-16T18:44:18.194Z,959.41
2016-03-16T18:45:18.194Z,959.43
2016-03-16T18:46:18.196Z,959.43
2016-03-16T18:47:18.198Z,959.45
2016-03-16T18:48:18.186Z,959.41
2016-03-16T18:49:18.203Z,959.4
2016-03-16T18:50:18.190Z,959.38
2016-03-16T18:51:18.208Z,959.45
2016-03-16T18:52:18.195Z,959.38
2016-03-16T18:53:18.197Z,959.43
2016-03-16T18:54:18.183Z,959.41
2016-03-16T18:55:18.202Z,959.43
2016-03-16T18:56:18.188Z,959.43
2016-03-16T18:57:18.190Z,959.41
2016-03-16T18:58:18.210Z,959.45
2016-03-16T18:59:18.181Z,959.46
2016-03-16T19:00:18.183Z,959.47
2016-03-16T19:01:18.311Z,959.45
2016-03-16T19:02:18.189Z,959.47
2016-03-16T19:03:18.192Z,959.46
2016-03-16T19:04:18.195Z,959.46
2016-03-16T19:05:18.181Z,959.43
2016-03-16T19:06:18.215Z,959.47
2016-03-16T19:07:18.184Z,959.44
2016-03-16T19:08:18.203Z,959.45
2016-03-16T19:09:18.190Z,959.46
2016-03-16T19:10:18.193Z,959.44
2016-03-16T19:11:18.196Z,959.48
2016-03-16T19:12:18.182Z,959.47
2016-03-16T19:13:18.201Z,959.47
2016-03-16T19:14:18.187Z,959.49
2016-03-16T19:15:18.190Z,959.47
2016-03-16T19:16:18.192Z,959.52
2016-03-16T19:17:18.200Z,959.55
2016-03-16T19:18:18.188Z,959.53
2016-03-16T19:19:18.206Z,959.55
2016-03-16T19:20:18.193Z,959.55
2016-03-16T19:21:18.198Z,959.55
2016-03-16T19:22:18.184Z,959.56
2016-03-16T19:23:18.187Z,959.56
2016-03-16T19:24:18.189Z,959.59
2016-03-16T19:25:18.192Z,959.63
2016-03-16T19:26:18.195Z,959.65
2016-03-16T19:27:18.181Z,959.6
2016-03-16T19:28:18.184Z,959.6
2016-03-16T19:29:18.203Z,959.6
2016-03-16T19:30:18.190Z,959.61
2016-03-16T19:31:18.193Z,959.64
2016-03-16T19:32:18.195Z,959.6
2016-03-16T19:33:18.183Z,959.62
2016-03-16T19:34:18.185Z,959.61
2016-03-16T19:35:18.203Z,959.61
2016-03-16T19:36:18.206Z,959.58
2016-03-16T19:37:18.193Z,959.57
2016-03-16T19:38:18.196Z,959.6
2016-03-16T19:39:18.183Z,959.62
2016-03-16T19:40:18.185Z,959.63
2016-03-16T19:41:18.188Z,959.57
2016-03-16T19:42:18.191Z,959.58
2016-03-16T19:43:18.177Z,959.58
2016-03-16T19:44:18.180Z,959.62
2016-03-16T19:45:18.183Z,959.59
2016-03-16T19:46:18.186Z,959.56
2016-03-16T19:47:18.188Z,959.54
2016-03-16T19:48:18.191Z,959.51
2016-03-16T19:49:18.179Z,959.54
2016-03-16T19:50:18.181Z,959.54
2016-03-16T19:51:18.184Z,959.53
2016-03-16T19:52:18.187Z,959.5
2016-03-16T19:53:18.189Z,959.49
2016-03-16T19:54:18.192Z,959.5
2016-03-16T19:55:18.194Z,959.52
2016-03-16T19:56:18.198Z,959.51
2016-03-16T19:57:18.184Z,959.54
2016-03-16T19:58:18.186Z,959.5
2016-03-16T19:59:18.190Z,959.49
2016-03-16T20:00:18.192Z,959.47
2016-03-16T20:01:18.180Z,959.51
2016-03-16T20:02:18.183Z,959.47
2016-03-16T20:03:18.185Z,959.45
2016-03-16T20:04:18.188Z,959.48
2016-03-16T20:05:18.191Z,959.5
2016-03-16T20:06:18.193Z,959.48
2016-03-16T20:07:18.196Z,959.5
2016-03-16T20:08:18.199Z,959.49
2016-03-16T20:09:18.186Z,959.53
2016-03-16T20:10:18.188Z,959.53
2016-03-16T20:11:18.191Z,959.48
2016-03-16T20:12:18.194Z,959.46
2016-03-16T20:13:18.180Z,959.43
2016-03-16T20:14:18.182Z,959.37
2016-03-16T20:15:18.185Z,959.4
2016-03-16T20:16:18.189Z,959.39
2016-03-16T20:17:18.191Z,959.39
2016-03-16T20:18:18.179Z,959.4
2016-03-16T20:19:18.181Z,959.35
2016-03-16T20:20:18.184Z,959.34
2016-03-16T20:21:18.187Z,959.36
2016-03-16T20:22:18.189Z,959.37
2016-03-16T20:23:18.177Z,959.32
2016-03-16T20:24:18.179Z,959.3
2016-03-16T20:25:18.188Z,959.28
2016-03-16T20:26:18.191Z,959.31
2016-03-16T20:27:18.193Z,959.3
2016-03-16T20:28:18.179Z,959.25
2016-03-16T20:29:18.182Z,959.26
2016-03-16T20:30:18.185Z,959.24
2016-03-16T20:31:18.172Z,959.18
2016-03-16T20:32:18.175Z,959.17
2016-03-16T20:33:18.178Z,959.2
2016-03-16T20:34:18.180Z,959.14
2016-03-16T20:35:18.183Z,959.16
2016-03-16T20:36:18.186Z,959.14
2016-03-16T20:37:18.188Z,959.17
2016-03-16T20:38:18.172Z,959.13
2016-03-16T20:39:18.175Z,959.15
2016-03-16T20:40:18.178Z,959.16
2016-03-16T20:41:18.181Z,959.15
2016-03-16T20:42:18.184Z,959.17
2016-03-16T20:43:18.186Z,959.16
2016-03-16T20:44:18.189Z,959.18
2016-03-16T20:45:18.176Z,959.17
2016-03-16T20:46:18.178Z,959.18
2016-03-16T20:47:18.181Z,959.18
2016-03-16T20:48:18.169Z,959.17
2016-03-16T20:49:18.172Z,959.2
2016-03-16T20:50:18.174Z,959.16
2016-03-16T20:51:18.177Z,959.17
2016-03-16T20:52:18.179Z,959.21
2016-03-16T20:53:18.183Z,959.16
2016-03-16T20:54:18.169Z,959.12
2016-03-16T20:55:18.171Z,959.12
2016-03-16T20:56:18.175Z,959.13
2016-03-16T20:57:18.193Z,959.14
2016-03-16T20:58:18.179Z,959.15
2016-03-16T20:59:18.167Z,959.09
2016-03-16T21:00:18.170Z,959.14
2016-03-16T21:01:18.172Z,959.13
2016-03-16T21:02:18.176Z,959.11
2016-03-16T21:03:18.178Z,959.12
2016-03-16T21:04:18.181Z,959.12
2016-03-16T21:05:18.167Z,959.12
2016-03-16T21:06:18.170Z,959.16
2016-03-16T21:07:18.172Z,959.13
2016-03-16T21:08:18.176Z,959.08
2016-03-16T21:09:18.179Z,959.08
2016-03-16T21:10:18.181Z,959.11
2016-03-16T21:11:18.184Z,959.09
2016-03-16T21:12:18.171Z,959.06
2016-03-16T21:13:18.173Z,959.07
2016-03-16T21:14:18.175Z,959.02
2016-03-16T21:15:18.178Z,959.02
2016-03-16T21:16:18.181Z,959.03
2016-03-16T21:17:18.168Z,959.04
2016-03-16T21:18:18.172Z,959.07
2016-03-16T21:19:18.174Z,959.08
2016-03-16T21:20:18.177Z,959.09
2016-03-16T21:21:18.179Z,959.08
2016-03-16T21:22:18.166Z,959.1
2016-03-16T21:23:18.168Z,959.14
2016-03-16T21:24:18.172Z,959.11
2016-03-16T21:25:18.174Z,959.12
2016-03-16T21:26:18.177Z,959.2
2016-03-16T21:27:18.195Z,959.18
2016-03-16T21:28:18.166Z,959.17
2016-03-16T21:29:18.169Z,959.18
2016-03-16T21:30:18.172Z,959.17
2016-03-16T21:31:18.174Z,959.2
2016-03-16T21:32:18.177Z,959.19
2016-03-16T21:33:18.180Z,959.24
2016-03-16T21:34:18.168Z,959.26
2016-03-16T21:35:18.170Z,959.2
2016-03-16T21:36:18.172Z,959.24
2016-03-16T21:37:18.176Z,959.23
2016-03-16T21:38:18.178Z,959.22
2016-03-16T21:39:18.165Z,959.25
2016-03-16T21:40:18.168Z,959.24
2016-03-16T21:41:18.170Z,959.25
2016-03-16T21:42:18.173Z,959.25
2016-03-16T21:43:18.176Z,959.22
2016-03-16T21:44:18.178Z,959.24
2016-03-16T21:45:18.181Z,959.22
2016-03-16T21:46:18.169Z,959.21
2016-03-16T21:47:18.171Z,959.17
2016-03-16T21:48:18.174Z,959.16
2016-03-16T21:49:18.177Z,959.15
2016-03-16T21:50:18.164Z,959.15
2016-03-16T21:51:18.167Z,959.15
2016-03-16T21:52:18.169Z,959.19
2016-03-16T21:53:18.172Z,959.21
2016-03-16T21:54:18.174Z,959.21
2016-03-16T21:55:18.177Z,959.21
2016-03-16T21:56:18.164Z,959.24
2016-03-16T21:57:18.166Z,959.24
2016-03-16T21:58:18.169Z,959.25
2016-03-16T21:59:18.172Z,959.24
2016-03-16T22:00:18.174Z,959.26
2016-03-16T22:01:18.177Z,959.21
2016-03-16T22:02:18.165Z,959.21
2016-03-16T22:03:18.167Z,959.23
2016-03-16T22:04:18.170Z,959.25
2016-03-16T22:05:18.173Z,959.23
2016-03-16T22:06:18.161Z,959.22
2016-03-16T22:07:18.164Z,959.16
2016-03-16T22:08:18.166Z,959.21
2016-03-16T22:09:18.168Z,959.2
2016-03-16T22:10:18.171Z,959.17
2016-03-16T22:11:18.174Z,959.19
2016-03-16T22:12:18.160Z,959.2
2016-03-16T22:13:18.163Z,959.2
2016-03-16T22:14:18.166Z,959.19
2016-03-16T22:15:18.168Z,959.17
2016-03-16T22:16:18.171Z,959.15
2016-03-16T22:17:18.160Z,959.14
2016-03-16T22:18:18.178Z,959.12
2016-03-16T22:19:18.180Z,959.12
2016-03-16T22:20:18.169Z,959.11
2016-03-16T22:21:18.171Z,959.14
2016-03-16T22:22:18.174Z,959.15
2016-03-16T22:23:18.176Z,959.15
2016-03-16T22:24:18.163Z,959.13
2016-03-16T22:25:18.165Z,959.1
2016-03-16T22:26:18.169Z,959.13
2016-03-16T22:27:18.171Z,959.1
2016-03-16T22:28:18.174Z,959.14
2016-03-16T22:29:18.161Z,959.11
2016-03-16T22:30:18.163Z,959.09
2016-03-16T22:31:18.166Z,959.12
2016-03-16T22:32:18.169Z,959.11
2016-03-16T22:33:18.171Z,959.11
2016-03-16T22:34:18.173Z,959.1
2016-03-16T22:35:18.162Z,959.07
2016-03-16T22:36:18.164Z,959.1
2016-03-16T22:37:18.167Z,959.09
2016-03-16T22:38:18.170Z,959.1
2016-03-16T22:39:18.172Z,959.12
2016-03-16T22:40:18.159Z,959.15
2016-03-16T22:41:18.162Z,959.15
2016-03-16T22:42:18.164Z,959.14
2016-03-16T22:43:18.167Z,959.12
2016-03-16T22:44:18.170Z,959.1
2016-03-16T22:45:18.157Z,959.06
2016-03-16T22:46:18.175Z,959.05
2016-03-16T22:47:18.178Z,959.08
2016-03-16T22:48:18.165Z,959.05
2016-03-16T22:49:18.169Z,959.07
2016-03-16T22:50:18.155Z,959.05
2016-03-16T22:51:18.157Z,959.1
2016-03-16T22:52:18.160Z,959.05
2016-03-16T22:53:18.163Z,959.07
2016-03-16T22:54:18.166Z,959.07
2016-03-16T22:55:18.168Z,959.06
2016-03-16T22:56:18.155Z,959.04
2016-03-16T22:57:18.157Z,959.04
2016-03-16T22:58:18.161Z,959.07
2016-03-16T22:59:18.163Z,959.07
2016-03-16T23:00:18.166Z,959.03
2016-03-16T23:01:18.168Z,959.05
2016-03-16T23:02:18.156Z,959.06
2016-03-16T23:03:18.159Z,959.06
2016-03-16T23:04:18.162Z,959.04
2016-03-16T23:05:18.165Z,959.02
2016-03-16T23:06:18.167Z,959.01
2016-03-16T23:07:18.154Z,959.07
2016-03-16T23:08:18.156Z,959.01
2016-03-16T23:09:18.159Z,959.01
2016-03-16T23:10:18.162Z,959.01
2016-03-16T23:11:18.164Z,958.99
2016-03-16T23:12:18.168Z,959.03
2016-03-16T23:13:18.170Z,958.98
2016-03-16T23:14:18.157Z,958.99
2016-03-16T23:15:18.159Z,959.03
2016-03-16T23:16:18.161Z,959.01
2016-03-16T23:17:18.164Z,958.99
2016-03-16T23:18:18.167Z,958.96
2016-03-16T23:19:18.155Z,958.94
2016-03-16T23:20:18.158Z,958.99
2016-03-16T23:21:18.160Z,958.98
2016-03-16T23:22:18.178Z,958.99
2016-03-16T23:23:18.165Z,958.97
2016-03-16T23:24:18.168Z,958.97
2016-03-16T23:25:18.155Z,959.01
2016-03-16T23:26:18.174Z,958.94
2016-03-16T23:27:18.161Z,959.03
2016-03-16T23:28:18.163Z,959.04
2016-03-16T23:29:18.166Z,959.04
2016-03-16T23:30:18.169Z,959.07
2016-03-16T23:31:18.171Z,959.03
2016-03-16T23:32:18.174Z,959.05
2016-03-16T23:33:18.161Z,959.02
2016-03-16T23:34:18.164Z,959.01
2016-03-16T23:35:18.167Z,959.03
2016-03-16T23:36:18.170Z,959.04
2016-03-16T23:37:18.156Z,959.03
2016-03-16T23:38:18.159Z,959.02
2016-03-16T23:39:18.162Z,958.98
2016-03-16T23:40:18.158Z,958.99
2016-03-16T23:42:04.694Z,959.04
2016-03-16T23:43:04.697Z,959.03
2016-03-16T23:44:04.685Z,959.08
2016-03-16T23:45:04.703Z,959.06
2016-03-16T23:46:04.690Z,959.07
2016-03-16T23:47:04.708Z,959.05
2016-03-16T23:48:04.696Z,959.02
2016-03-16T23:49:04.698Z,959
2016-03-16T23:50:04.701Z,959.04
2016-03-16T23:51:04.688Z,959.07
2016-03-16T23:52:04.691Z,959.05
2016-03-16T23:53:04.694Z,959.04
2016-03-16T23:54:04.696Z,959.04
2016-03-16T23:55:04.699Z,959.05
2016-03-16T23:56:04.686Z,959.04
2016-03-16T23:57:04.689Z,959.01